Time;durP1;ratioP1;P1;durP2;ratioP2;P2;SDS_P1;SDS_P2;PMS_P1;PMS_P2;Temp;Humidity;BMP_temperature;BMP_pressure;BME280_temperature;BME280_humidity;BME280_pressure;Samples;Min_cycle;Max_cycle;Signal;HPM_P1;HPM_P2
2023/03/27 00:01:51;;;;;;;4.80;0.80;;;4.20;99.90;;;;;;7402407;19;19918;-74
2023/03/27 00:04:20;;;;;;;6.63;1.10;;;5.60;99.90;;;;;;7408916;19;19982;-74
2023/03/27 00:06:50;;;;;;;2.08;0.60;;;3.80;99.90;;;;;;7407887;19;19942;-74
2023/03/27 00:09:20;;;;;;;2.63;0.63;;;4.20;99.90;;;;;;7407049;19;19946;-74
2023/03/27 00:11:49;;;;;;;2.08;0.90;;;4.50;99.90;;;;;;7408269;19;19915;-74
2023/03/27 00:14:22;;;;;;;3.20;0.60;;;4.70;99.90;;;;;;7407323;19;20265;-74
2023/03/27 00:16:51;;;;;;;4.25;0.70;;;4.00;99.90;;;;;;7405648;19;20282;-74
2023/03/27 00:19:21;;;;;;;3.00;0.60;;;3.90;99.90;;;;;;7407913;19;19914;-75
2023/03/27 00:21:50;;;;;;;2.40;0.70;;;;;;;;;;7405105;19;19918;-74
2023/03/27 00:24:19;;;;;;;4.78;1.05;;;4.80;99.90;;;;;;7403987;19;19929;-75
2023/03/27 00:26:48;;;;;;;4.18;0.77;;;5.10;99.90;;;;;;7406736;19;19926;-74
2023/03/27 00:29:17;;;;;;;2.67;0.47;;;4.90;99.90;;;;;;7409692;19;19946;-74
2023/03/27 00:31:50;;;;;;;4.65;0.70;;;3.90;99.90;;;;;;7407769;19;20563;-74
2023/03/27 00:34:19;;;;;;;2.70;0.57;;;3.90;99.90;;;;;;7407621;19;19946;-74
2023/03/27 00:36:50;;;;;;;7.85;0.95;;;5.10;99.90;;;;;;7406803;19;19925;-74
2023/03/27 00:39:20;;;;;;;4.90;1.15;;;5.10;99.90;;;;;;7405481;19;19915;-74
2023/03/27 00:41:50;;;;;;;3.75;0.73;;;3.80;99.90;;;;;;7404412;19;19914;-74
2023/03/27 00:44:26;;;;;;;3.22;0.40;;;3.60;99.90;;;;;;7404864;19;19915;-74
2023/03/27 00:47:01;;;;;;;5.80;1.00;;;4.60;99.90;;;;;;7407555;19;19954;-74
2023/03/27 00:49:33;;;;;;;2.20;0.60;;;4.80;99.90;;;;;;7407480;19;19927;-74
2023/03/27 00:52:05;;;;;;;7.03;0.75;;;3.40;99.90;;;;;;7407189;19;20665;-74
2023/03/27 00:54:40;;;;;;;3.45;1.15;;;3.60;99.90;;;;;;7404246;19;19930;-74
2023/03/27 00:57:12;;;;;;;7.47;0.90;;;4.20;99.90;;;;;;7404152;19;19926;-74
2023/03/27 00:59:43;;;;;;;5.95;0.98;;;4.10;99.90;;;;;;7406825;19;19919;-74
2023/03/27 01:02:17;;;;;;;1.40;0.52;;;3.30;99.90;;;;;;7406737;19;19926;-74
2023/03/27 01:04:48;;;;;;;4.90;0.80;;;3.50;99.90;;;;;;7405825;19;19915;-74
2023/03/27 01:07:17;;;;;;;3.47;0.68;;;3.30;99.90;;;;;;7403823;19;19922;-74
2023/03/27 01:09:47;;;;;;;4.57;0.80;;;4.50;99.90;;;;;;7406048;19;19918;-74
2023/03/27 01:12:38;;;;;;;8.40;0.65;;;4.80;99.90;;;;;;7403089;19;19947;-74
2023/03/27 01:15:20;;;;;;;6.28;0.40;;;3.40;99.90;;;;;;7405453;19;19926;-74
2023/03/27 01:18:03;;;;;;;1.23;0.55;;;4.10;99.90;;;;;;7405360;19;19918;-74
2023/03/27 01:21:05;;;;;;;0.52;0.30;;;3.40;99.90;;;;;;7408605;19;19935;-75
2023/03/27 01:24:22;;;;;;;5.47;0.77;;;4.40;99.90;;;;;;7404993;19;19982;-74
2023/03/27 01:27:09;;;;;;;3.65;0.40;;;3.30;99.90;;;;;;7406167;19;20011;-74
2023/03/27 01:29:57;;;;;;;1.35;0.28;;;4.30;99.90;;;;;;7403874;19;20259;-74
2023/03/27 01:32:46;;;;;;;4.07;0.47;;;4.10;99.90;;;;;;7402716;19;19919;-74
2023/03/27 01:35:32;;;;;;;4.38;0.70;;;4.00;99.90;;;;;;7405005;19;20249;-74
2023/03/27 01:38:30;;;;;;;5.22;0.63;;;3.50;99.90;;;;;;7403642;19;19918;-74
2023/03/27 01:41:10;;;;;;;5.20;0.65;;;3.90;99.90;;;;;;7406348;19;19918;-74
2023/03/27 01:43:46;;;;;;;2.85;0.40;;;3.90;99.90;;;;;;7405372;19;19974;-74
2023/03/27 01:46:22;;;;;;;0.88;0.38;;;4.10;99.90;;;;;;7401278;19;19982;-74
2023/03/27 01:48:55;;;;;;;4.35;0.90;;;4.50;99.90;;;;;;7404921;19;19922;-74
2023/03/27 01:51:30;;;;;;;3.42;0.50;;;4.70;99.90;;;;;;7406913;19;19930;-74
2023/03/27 01:54:03;;;;;;;6.05;0.90;;;3.00;99.90;;;;;;7405177;19;19928;-74
2023/03/27 01:56:39;;;;;;;7.85;1.88;;;4.00;99.90;;;;;;7405905;19;19922;-74
2023/03/27 01:59:12;;;;;;;3.95;0.55;;;3.20;99.90;;;;;;7404934;19;19946;-74
2023/03/27 02:01:45;;;;;;;9.95;0.73;;;4.20;99.90;;;;;;7405259;19;19930;-74
2023/03/27 02:04:18;;;;;;;1.95;0.50;;;3.80;99.90;;;;;;7402218;19;20626;-74
2023/03/27 02:06:53;;;;;;;6.93;0.50;;;4.20;99.90;;;;;;7404652;19;19926;-73
2023/03/27 02:09:24;;;;;;;2.92;0.70;;;2.70;99.90;;;;;;7402785;19;19918;-74
2023/03/27 02:11:58;;;;;;;;;;;3.70;99.90;;;;;;7406648;19;19922;-74
2023/03/27 02:14:32;;;;;;;4.85;1.33;;;3.30;99.90;;;;;;7405133;19;19943;-74
2023/03/27 02:17:06;;;;;;;10.45;1.23;;;4.30;99.90;;;;;;7405094;19;20336;-74
2023/03/27 02:19:39;;;;;;;4.63;1.05;;;3.70;99.90;;;;;;7398122;19;20328;-74
2023/03/27 02:22:09;;;;;;;4.88;0.55;;;2.90;99.90;;;;;;7405915;19;19926;-74
2023/03/27 02:24:40;;;;;;;1.35;0.70;;;4.40;99.90;;;;;;7403070;19;20363;-74
2023/03/27 02:27:18;;;;;;;6.63;0.68;;;4.10;99.90;;;;;;7405566;19;20027;-74
2023/03/27 02:29:57;;;;;;;5.00;0.70;;;3.00;99.90;;;;;;7404785;19;19915;-74
2023/03/27 02:32:38;;;;;;;3.15;0.50;;;3.60;99.90;;;;;;7403671;19;19922;-74
2023/03/27 02:35:31;;;;;;;3.78;0.75;;;2.30;99.90;;;;;;7405074;19;19982;-74
2023/03/27 02:38:10;;;;;;;6.88;0.70;;;3.30;99.90;;;;;;7402991;19;19922;-73
2023/03/27 02:40:49;;;;;;;6.68;0.60;;;2.30;99.90;;;;;;7404910;19;19923;-73
2023/03/27 02:43:22;;;;;;;4.03;0.60;;;2.90;99.90;;;;;;7401210;19;19930;-73
2023/03/27 02:45:56;;;;;;;4.80;0.75;;;2.20;99.90;;;;;;7403613;19;19927;-73
2023/03/27 02:48:32;;;;;;;4.40;0.73;;;3.50;99.90;;;;;;7402146;19;19923;-74
2023/03/27 02:51:06;;;;;;;4.88;0.63;;;3.10;99.90;;;;;;7403570;19;20366;-74
2023/03/27 02:53:40;;;;;;;3.03;0.80;;;2.80;99.90;;;;;;7402695;19;19942;-74
2023/03/27 02:56:10;;;;;;;2.40;0.65;;;2.30;99.90;;;;;;7402731;19;19933;-74
2023/03/27 02:58:48;;;;;;;1.40;0.50;;;3.50;99.90;;;;;;7402517;19;19922;-74
2023/03/27 03:01:20;;;;;;;1.17;0.52;;;2.00;99.90;;;;;;7401933;19;19922;-74
2023/03/27 03:03:56;;;;;;;3.67;0.68;;;2.20;99.90;;;;;;7403094;19;19914;-74
2023/03/27 03:06:28;;;;;;;1.55;0.75;;;1.80;99.90;;;;;;7400979;19;20260;-73
2023/03/27 03:09:01;;;;;;;1.63;0.47;;;2.00;99.90;;;;;;7402214;19;20323;-74
2023/03/27 03:11:32;;;;;;;3.20;0.55;;;1.70;99.90;;;;;;7404988;19;19926;-74
2023/03/27 03:14:04;;;;;;;3.28;0.60;;;2.30;99.90;;;;;;7403010;19;20282;-74
2023/03/27 03:16:33;;;;;;;3.35;0.73;;;2.10;99.90;;;;;;7403063;19;19919;-74
2023/03/27 03:19:02;;;;;;;1.50;0.40;;;2.30;99.90;;;;;;7399552;19;19928;-74
2023/03/27 03:21:31;;;;;;;4.50;0.70;;;2.80;99.90;;;;;;7401005;19;19929;-74
2023/03/27 03:24:00;;;;;;;1.60;0.50;;;3.00;99.90;;;;;;7400567;19;19943;-74
2023/03/27 03:26:31;;;;;;;1.98;0.50;;;3.00;99.90;;;;;;7402004;19;19922;-73
2023/03/27 03:29:00;;;;;;;1.08;0.52;;;3.40;99.90;;;;;;7402703;19;19926;-73
2023/03/27 03:31:43;;;;;;;3.38;0.57;;;3.30;99.90;;;;;;7403527;19;19950;-74
2023/03/27 03:34:12;;;;;;;3.17;0.40;;;;;;;;;;7401930;19;19926;-73
2023/03/27 03:36:43;;;;;;;6.15;1.05;;;;;;;;;;7400043;19;19915;-74
2023/03/27 03:39:13;;;;;;;2.10;0.50;;;1.90;99.90;;;;;;7402586;19;19994;-73
2023/03/27 03:41:42;;;;;;;2.45;0.70;;;3.20;99.90;;;;;;7400539;19;20374;-73
2023/03/27 03:44:12;;;;;;;6.75;0.73;;;2.20;99.90;;;;;;7404263;19;19930;-73
2023/03/27 03:46:43;;;;;;;1.75;0.63;;;3.20;99.90;;;;;;7400147;19;19939;-74
2023/03/27 03:49:12;;;;;;;5.68;1.38;;;2.60;99.90;;;;;;7402709;19;19926;-73
2023/03/27 03:51:41;;;;;;;3.00;0.65;;;;;;;;;;7402681;19;20389;-73
2023/03/27 03:54:11;;;;;;;4.53;0.68;;;2.00;99.90;;;;;;7401239;19;19918;-73
2023/03/27 03:56:40;;;;;;;6.53;0.85;;;2.90;99.90;;;;;;7399249;19;19935;-73
2023/03/27 03:59:10;;;;;;;0.88;0.50;;;1.80;99.90;;;;;;7399066;19;20015;-73
2023/03/27 04:01:44;;;;;;;7.80;0.95;;;2.60;99.90;;;;;;7399338;19;20255;-73
2023/03/27 04:04:13;;;;;;;2.75;0.70;;;1.60;99.90;;;;;;7402037;19;19926;-73
2023/03/27 04:06:43;;;;;;;2.55;1.05;;;2.00;99.90;;;;;;7401590;19;19926;-73
2023/03/27 04:09:12;;;;;;;4.82;0.93;;;;;;;;;;7404814;19;19950;-73
2023/03/27 04:11:41;;;;;;;3.72;0.70;;;2.00;99.90;;;;;;7403798;19;19925;-72
2023/03/27 04:14:11;;;;;;;2.40;0.60;;;3.30;99.90;;;;;;7409164;19;19926;-73
2023/03/27 04:16:43;;;;;;;11.02;1.00;;;3.10;99.90;;;;;;7408971;19;19925;-74
2023/03/27 04:19:12;;;;;;;5.03;1.10;;;;;;;;;;7403512;19;20728;-74
2023/03/27 04:21:41;;;;;;;4.05;0.82;;;2.00;99.90;;;;;;7405120;19;19935;-73
2023/03/27 04:24:12;;;;;;;4.57;0.82;;;1.80;99.90;;;;;;7405981;19;19926;-73
2023/03/27 04:26:42;;;;;;;2.35;0.70;;;2.90;99.90;;;;;;7406679;19;19925;-74
2023/03/27 04:29:11;;;;;;;1.95;0.50;;;3.00;99.90;;;;;;7408099;19;19922;-74
2023/03/27 04:31:45;;;;;;;6.78;1.20;;;2.50;99.90;;;;;;7408877;19;20017;-73
2023/03/27 04:34:18;;;;;;;3.20;0.70;;;1.60;99.90;;;;;;7405408;19;19968;-74
2023/03/27 04:36:49;;;;;;;3.10;0.73;;;2.40;99.90;;;;;;7406180;19;19923;-73
2023/03/27 04:39:18;;;;;;;2.42;0.60;;;2.70;99.90;;;;;;7407647;19;19926;-73
2023/03/27 04:41:49;;;;;;;4.65;0.80;;;2.30;99.90;;;;;;7406016;19;19922;-73
2023/03/27 04:44:18;;;;;;;4.72;0.70;;;;;;;;;;7409146;19;20388;-73
2023/03/27 04:47:00;;;;;;;4.93;1.17;;;2.90;99.90;;;;;;7409070;19;20694;-73
2023/03/27 04:49:37;;;;;;;4.63;0.95;;;3.00;99.90;;;;;;7407310;19;19995;-73
2023/03/27 04:52:07;;;;;;;2.53;0.73;;;2.50;99.90;;;;;;7404479;19;19922;-73
2023/03/27 04:54:36;;;;;;;3.05;1.05;;;2.10;99.90;;;;;;7404849;19;20348;-73
2023/03/27 04:57:06;;;;;;;1.55;0.70;;;;;;;;;;7408005;19;20344;-73
2023/03/27 04:59:35;;;;;;;1.83;0.75;;;2.10;99.90;;;;;;7405391;19;19926;-73
2023/03/27 05:02:07;;;;;;;3.22;0.95;;;2.50;99.90;;;;;;7407163;19;19919;-73
2023/03/27 05:04:42;;;;;;;2.35;0.80;;;3.00;99.90;;;;;;7403831;19;19922;-73
2023/03/27 05:07:11;;;;;;;2.97;0.82;;;1.90;99.90;;;;;;7401825;19;20256;-73
2023/03/27 05:09:41;;;;;;;6.80;1.60;;;;;;;;;;7403775;19;19926;-73
2023/03/27 05:12:10;;;;;;;5.55;0.90;;;2.80;99.90;;;;;;7404780;19;19957;-74
2023/03/27 05:14:40;;;;;;;6.10;1.20;;;;;;;;;;7407210;19;19915;-73
2023/03/27 05:17:11;;;;;;;4.38;1.20;;;2.00;99.90;;;;;;7404357;19;19915;-74
2023/03/27 05:19:42;;;;;;;3.20;1.05;;;1.80;99.90;;;;;;7400730;19;19914;-73
2023/03/27 05:28:13;;;;;;;3.15;1.05;;;2.30;99.90;;;;;;7348527;19;19926;-80
2023/03/27 05:30:43;;;;;;;3.35;0.40;;;2.00;99.90;;;;;;7383015;19;19986;-79
2023/03/27 05:33:15;;;;;;;3.22;0.60;;;1.50;99.90;;;;;;7405876;19;19914;-80
2023/03/27 05:35:47;;;;;;;8.73;1.02;;;2.30;99.90;;;;;;7405151;19;19942;-80
2023/03/27 05:38:16;;;;;;;4.25;0.75;;;2.90;99.90;;;;;;7406795;19;20694;-80
2023/03/27 05:40:47;;;;;;;2.38;0.50;;;1.60;99.90;;;;;;7406122;19;19922;-80
2023/03/27 05:43:15;;;;;;;4.60;0.85;;;2.30;99.90;;;;;;7407308;19;20304;-80
2023/03/27 05:45:45;;;;;;;3.20;0.20;;;2.80;99.90;;;;;;7407379;19;19922;-81
2023/03/27 05:48:18;;;;;;;3.28;0.40;;;1.30;99.90;;;;;;7404641;19;19911;-80
2023/03/27 05:50:48;;;;;;;2.92;0.55;;;1.20;99.90;;;;;;7408085;19;20318;-80
2023/03/27 05:53:18;;;;;;;3.20;0.63;;;2.80;99.90;;;;;;7402637;19;19922;-80
2023/03/27 05:55:47;;;;;;;1.40;0.40;;;2.80;99.90;;;;;;7403508;19;19922;-80
2023/03/27 05:58:16;;;;;;;2.20;0.50;;;1.50;99.90;;;;;;7404794;19;19942;-81
2023/03/27 06:00:45;;;;;;;2.38;0.57;;;3.00;99.90;;;;;;7407255;19;19927;-80
2023/03/27 06:03:28;;;;;;;1.45;0.40;;;3.30;99.90;;;;;;7401908;19;20356;-81
2023/03/27 06:05:59;;;;;;;5.22;0.57;;;2.50;99.90;;;;;;7403581;19;19915;-80
2023/03/27 06:08:28;;;;;;;0.63;0.40;;;2.10;99.90;;;;;;7401940;19;19922;-77
2023/03/27 06:10:57;;;;;;;2.72;0.60;;;2.50;99.90;;;;;;7314151;19;19926;-79
2023/03/27 06:13:26;;;;;;;1.40;0.47;;;2.70;99.90;;;;;;7407294;19;20268;-84
2023/03/27 06:15:56;;;;;;;3.15;0.60;;;2.90;99.90;;;;;;7407418;19;19949;-82
2023/03/27 06:18:27;;;;;;;1.20;0.40;;;2.30;99.90;;;;;;7403020;19;20287;-81
2023/03/27 06:20:57;;;;;;;3.47;1.00;;;2.70;99.90;;;;;;7406063;19;19929;-82
2023/03/27 06:23:26;;;;;;;2.42;0.60;;;3.40;99.90;;;;;;7404928;19;19932;-78
2023/03/27 06:25:57;;;;;;;2.45;0.45;;;2.00;99.90;;;;;;7403404;19;19927;-79
2023/03/27 06:28:27;;;;;;;3.47;0.73;;;3.30;99.90;;;;;;7403969;19;19922;-83
2023/03/27 06:30:56;;;;;;;4.85;0.93;;;2.80;99.90;;;;;;7399276;19;19922;-80
2023/03/27 06:33:28;;;;;;;3.60;0.30;;;3.30;99.90;;;;;;7400468;19;19947;-81
2023/03/27 06:35:59;;;;;;;2.10;0.77;;;2.90;99.90;;;;;;7402188;19;19937;-81
2023/03/27 06:38:30;;;;;;;2.22;0.35;;;2.60;99.90;;;;;;7400942;19;19927;-81
2023/03/27 06:40:59;;;;;;;3.42;0.50;;;2.90;99.90;;;;;;7403719;19;19930;-80
2023/03/27 06:43:28;;;;;;;2.28;0.50;;;2.90;99.90;;;;;;7403568;19;19937;-80
2023/03/27 06:45:57;;;;;;;4.95;0.82;;;3.40;99.90;;;;;;7399347;19;19919;-80
2023/03/27 06:48:29;;;;;;;0.43;0.40;;;2.90;99.90;;;;;;7404841;19;20361;-81
2023/03/27 06:50:58;;;;;;;2.38;0.40;;;2.10;99.90;;;;;;7402434;19;19926;-81
2023/03/27 06:53:28;;;;;;;2.97;0.40;;;3.50;99.90;;;;;;7403649;19;19940;-80
2023/03/27 06:55:59;;;;;;;2.95;0.85;;;3.00;99.90;;;;;;7399540;19;19977;-80
2023/03/27 06:58:28;;;;;;;2.45;0.45;;;3.40;99.90;;;;;;7401053;19;19928;-80
2023/03/27 07:00:57;;;;;;;1.90;0.47;;;3.00;99.90;;;;;;7403160;19;21926;-80
2023/03/27 07:03:29;;;;;;;4.32;0.45;;;2.40;99.90;;;;;;7401451;19;19914;-80
2023/03/27 07:05:59;;;;;;;3.35;0.45;;;4.20;99.90;;;;;;7399365;19;19918;-80
2023/03/27 07:08:32;;;;;;;1.38;0.50;;;2.90;99.90;;;;;;7394357;19;20726;-80
2023/03/27 07:11:02;;;;;;;1.50;0.35;;;3.70;99.90;;;;;;7400613;19;19925;-80
2023/03/27 07:13:32;;;;;;;9.95;0.80;;;3.50;99.90;;;;;;7399721;19;19923;-80
2023/03/27 07:16:02;;;;;;;3.08;1.42;;;3.30;99.90;;;;;;7402735;19;19923;-79
2023/03/27 07:18:34;;;;;;;5.93;0.73;;;4.30;99.90;;;;;;7400130;19;19926;-79
2023/03/27 07:21:03;;;;;;;4.00;1.08;;;3.60;99.90;;;;;;7398998;19;19922;-79
2023/03/27 07:23:32;;;;;;;4.00;1.10;;;4.30;99.90;;;;;;7400282;19;19974;-79
2023/03/27 07:26:02;;;;;;;1.50;0.73;;;4.80;99.90;;;;;;7404389;19;19926;-78
2023/03/27 07:28:31;;;;;;;3.22;0.70;;;3.60;99.90;;;;;;7400076;19;20277;-79
2023/03/27 07:31:10;;;;;;;4.05;0.90;;;4.20;99.90;;;;;;7402198;19;19965;-79
2023/03/27 07:33:42;;;;;;;6.00;0.80;;;3.60;99.90;;;;;;7401695;19;19963;-78
2023/03/27 07:36:13;;;;;;;9.25;1.10;;;3.80;99.90;;;;;;7400663;19;19982;-79
2023/03/27 07:38:43;;;;;;;6.53;1.48;;;3.70;99.90;;;;;;7400145;19;19930;-78
2023/03/27 07:41:12;;;;;;;11.43;5.05;;;3.90;99.90;;;;;;7394010;19;19918;-79
2023/03/27 07:43:41;;;;;;;10.07;3.15;;;4.90;99.90;;;;;;7401755;19;20414;-79
2023/03/27 07:46:10;;;;;;;9.18;4.10;;;5.10;99.90;;;;;;7407188;19;19921;-79
2023/03/27 07:48:42;;;;;;;10.13;3.30;;;4.30;99.90;;;;;;7407679;19;19943;-78
2023/03/27 07:51:11;;;;;;;7.30;2.03;;;4.20;99.90;;;;;;7407301;19;19957;-79
2023/03/27 07:53:41;;;;;;;6.70;1.40;;;4.20;99.90;;;;;;7406358;19;19923;-79
2023/03/27 07:56:11;;;;;;;4.15;0.80;;;3.50;99.90;;;;;;7406778;19;19914;-79
2023/03/27 07:58:40;;;;;;;5.72;1.02;;;4.00;99.90;;;;;;7405865;19;20280;-79
2023/03/27 08:01:10;;;;;;;1.63;0.38;;;4.60;99.90;;;;;;7407843;19;20266;-78
2023/03/27 08:03:42;;;;;;;1.35;0.60;;;4.00;99.90;;;;;;7411105;19;19935;-78
2023/03/27 08:06:11;;;;;;;2.33;1.10;;;4.10;99.90;;;;;;7421494;19;19919;-78
2023/03/27 08:08:42;;;;;;;2.55;0.60;;;3.90;99.90;;;;;;7420698;19;19974;-78
2023/03/27 08:11:11;;;;;;;8.38;0.90;;;4.00;99.90;;;;;;7420856;19;20693;-78
2023/03/27 08:13:41;;;;;;;2.53;0.40;;;4.00;99.90;;;;;;7421288;19;19947;-78
2023/03/27 08:16:15;;;;;;;1.98;0.63;;;4.90;99.90;;;;;;7416971;19;19922;-78
2023/03/27 08:18:48;;;;;;;2.38;0.50;;;4.10;99.90;;;;;;7412833;19;19918;-78
2023/03/27 08:21:17;;;;;;;4.47;0.85;;;4.20;99.90;;;;;;7408796;19;19936;-78
2023/03/27 08:23:47;;;;;;;3.95;1.30;;;4.70;99.90;;;;;;7407976;19;20551;-78
2023/03/27 08:26:16;;;;;;;2.67;0.68;;;4.30;99.90;;;;;;7406146;19;19915;-78
2023/03/27 08:28:46;;;;;;;1.52;0.45;;;5.10;99.90;;;;;;7402546;19;19918;-80
2023/03/27 08:31:18;;;;;;;3.83;0.80;;;4.40;99.90;;;;;;7406010;19;19922;-80
2023/03/27 08:33:50;;;;;;;3.58;1.75;;;4.20;99.90;;;;;;7405530;19;19940;-80
2023/03/27 08:36:21;;;;;;;3.38;1.13;;;4.20;99.90;;;;;;7406318;19;19921;-79
2023/03/27 08:38:53;;;;;;;0.73;0.52;;;5.30;99.90;;;;;;7404500;19;19966;-80
2023/03/27 08:41:33;;;;;;;1.95;0.57;;;4.70;99.90;;;;;;7405960;19;19951;-80
2023/03/27 08:44:05;;;;;;;5.32;1.05;;;4.40;99.90;;;;;;7406695;19;19927;-81
2023/03/27 08:46:41;;;;;;;3.38;0.40;;;4.30;99.90;;;;;;7405117;19;19974;-82
2023/03/27 08:49:20;;;;;;;1.88;0.60;;;4.50;99.90;;;;;;7405137;19;20264;-79
2023/03/27 08:51:54;;;;;;;2.35;0.70;;;4.90;99.90;;;;;;7405440;19;19915;-79
2023/03/27 08:54:25;;;;;;;6.55;0.82;;;4.40;99.90;;;;;;7404634;19;20463;-79
2023/03/27 08:56:55;;;;;;;3.22;0.65;;;4.60;99.90;;;;;;7405364;19;19933;-79
2023/03/27 08:59:26;;;;;;;4.00;0.50;;;5.20;99.90;;;;;;7403629;19;19927;-79
2023/03/27 09:01:59;;;;;;;;;;;4.70;99.90;;;;;;7407906;19;19911;-80
2023/03/27 09:04:40;;;;;;;2.88;0.50;;;4.70;99.90;;;;;;7404935;19;19932;-80
2023/03/27 09:07:15;;;;;;;4.07;1.08;;;5.50;99.90;;;;;;7405237;19;19918;-80
2023/03/27 09:09:54;;;;;;;4.07;1.10;;;5.50;99.90;;;;;;7404998;19;19911;-80
2023/03/27 09:12:36;;;;;;;3.83;0.28;;;4.90;99.90;;;;;;7405249;19;19919;-82
2023/03/27 09:15:13;;;;;;;4.15;0.40;;;4.70;99.90;;;;;;7405001;19;19922;-82
2023/03/27 09:17:47;;;;;;;3.90;0.70;;;4.90;99.90;;;;;;7406667;19;20261;-79
2023/03/27 09:20:23;;;;;;;2.28;0.38;;;5.10;99.90;;;;;;7402612;19;19919;-81
2023/03/27 09:22:55;;;;;;;3.22;0.52;;;5.30;99.90;;;;;;7404512;19;19922;-81
2023/03/27 09:25:29;;;;;;;1.15;0.40;;;5.40;99.90;;;;;;7403913;19;19986;-79
2023/03/27 09:28:00;;;;;;;4.40;0.38;;;5.80;99.90;;;;;;7403106;19;20350;-82
2023/03/27 09:30:31;;;;;;;2.47;0.40;;;5.40;99.90;;;;;;7404160;19;19970;-81
2023/03/27 09:33:04;;;;;;;1.92;0.35;;;5.10;99.90;;;;;;7404492;19;19919;-81
2023/03/27 09:35:37;;;;;;;7.82;0.98;;;4.80;99.90;;;;;;7404069;19;19923;-82
2023/03/27 09:38:17;;;;;;;4.65;0.75;;;4.60;99.90;;;;;;7404296;19;19922;-82
2023/03/27 09:40:51;;;;;;;1.95;0.65;;;4.90;99.90;;;;;;7401892;19;19921;-82
2023/03/27 09:43:24;;;;;;;8.23;0.95;;;4.90;99.90;;;;;;7404149;19;20372;-81
2023/03/27 09:45:55;;;;;;;4.70;0.52;;;4.60;99.90;;;;;;7404053;19;20001;-82
2023/03/27 09:48:32;;;;;;;1.23;0.30;;;4.70;99.90;;;;;;7403986;19;20282;-81
2023/03/27 09:51:04;;;;;;;2.13;0.32;;;5.70;99.90;;;;;;7403706;19;19972;-81
2023/03/27 09:53:34;;;;;;;;;;;4.90;99.90;;;;;;7406018;19;19923;-81
2023/03/27 09:56:06;;;;;;;0.93;0.25;;;5.40;99.90;;;;;;7404578;19;19914;-81
2023/03/27 09:58:40;;;;;;;2.50;0.32;;;5.00;99.90;;;;;;7403802;19;20344;-81
2023/03/27 10:01:14;;;;;;;1.92;0.40;;;5.40;99.90;;;;;;7403533;19;19922;-81
2023/03/27 10:03:52;;;;;;;1.75;0.22;;;5.40;99.90;;;;;;7403071;19;20317;-81
2023/03/27 10:06:46;;;;;;;4.05;0.50;;;5.60;99.90;;;;;;7399832;19;20470;-81
2023/03/27 10:09:25;;;;;;;5.10;0.55;;;5.60;99.90;;;;;;7407002;19;19918;-80
2023/03/27 10:12:06;;;;;;;4.72;0.82;;;5.40;99.90;;;;;;7407349;19;19921;-80
2023/03/27 10:14:40;;;;;;;2.35;0.38;;;5.00;99.90;;;;;;7407041;19;19930;-78
2023/03/27 10:17:25;;;;;;;5.05;0.47;;;4.70;99.90;;;;;;7405244;19;19990;-81
2023/03/27 10:20:21;;;;;;;3.05;0.43;;;4.80;99.90;;;;;;7409138;19;19929;-79
2023/03/27 10:23:40;;;;;;;4.05;0.70;;;4.60;99.90;;;;;;7411123;19;19978;-81
2023/03/27 10:26:27;;;;;;;3.22;0.40;;;4.80;99.90;;;;;;7391226;19;19918;-82
2023/03/27 10:38:18;;;;;;;5.35;0.85;;;6.80;99.90;;;;;;7404587;19;19982;-77
2023/03/27 10:40:54;;;;;;;1.92;0.47;;;5.80;99.90;;;;;;7407564;19;19982;-77
2023/03/27 10:43:32;;;;;;;3.88;0.52;;;6.00;99.90;;;;;;7408271;19;19918;-77
2023/03/27 10:46:05;;;;;;;1.90;0.50;;;6.20;99.90;;;;;;7411625;19;19914;-77
2023/03/27 10:48:47;;;;;;;1.65;0.30;;;6.60;99.90;;;;;;7407861;19;19945;-76
2023/03/27 10:51:26;;;;;;;2.88;0.28;;;6.60;99.90;;;;;;7406943;19;19933;-76
2023/03/27 10:54:01;;;;;;;1.27;0.40;;;5.40;99.90;;;;;;7405574;19;19922;-76
2023/03/27 10:56:41;;;;;;;2.75;0.43;;;4.90;99.90;;;;;;7403676;19;20006;-77
2023/03/27 10:59:25;;;;;;;4.55;0.60;;;4.80;99.90;;;;;;7404785;19;19929;-77
2023/03/27 11:01:59;;;;;;;5.50;0.75;;;4.50;99.90;;;;;;7405575;19;19915;-81
2023/03/27 11:08:22;;;;;;;4.13;0.40;;;6.30;99.90;;;;;;7405791;19;20002;-67
2023/03/27 11:10:57;;;;;;;5.45;0.90;;;5.50;99.90;;;;;;7399665;19;19973;-70
2023/03/27 11:13:29;;;;;;;1.35;0.40;;;5.70;99.90;;;;;;7400716;19;19929;-69
2023/03/27 11:16:18;;;;;;;5.43;0.47;;;5.90;99.90;;;;;;7398163;19;20271;-68
2023/03/27 11:18:51;;;;;;;5.05;0.55;;;6.10;99.90;;;;;;7399917;19;19929;-68
2023/03/27 11:21:27;;;;;;;1.65;0.45;;;6.20;99.90;;;;;;7401224;19;19922;-68
2023/03/27 11:23:59;;;;;;;1.63;0.38;;;6.30;99.90;;;;;;7398987;19;20010;-67
2023/03/27 11:26:34;;;;;;;;;;;6.20;99.90;;;;;;7403438;19;19946;-68
2023/03/27 11:36:01;;;;;;;1.58;0.20;;;6.30;99.90;;;;;;7399672;19;19962;-68
2023/03/27 11:38:36;;;;;;;1.70;0.30;;;5.60;99.90;;;;;;7399792;19;19923;-69
2023/03/27 11:41:07;;;;;;;3.45;0.60;;;6.30;99.90;;;;;;7396985;19;19918;-68
2023/03/27 11:43:40;;;;;;;3.78;0.45;;;6.30;99.90;;;;;;7399823;19;19922;-69
2023/03/27 11:46:23;;;;;;;1.15;0.28;;;6.30;99.90;;;;;;7397545;19;19918;-70
2023/03/27 11:49:18;;;;;;;4.47;0.40;;;6.40;99.90;;;;;;7399120;19;19919;-69
2023/03/27 11:52:00;;;;;;;5.35;0.80;;;6.30;99.90;;;;;;7399195;19;19917;-69
2023/03/27 11:54:47;;;;;;;6.20;0.60;;;6.20;99.90;;;;;;7398976;19;20532;-69
2023/03/27 11:57:25;;;;;;;0.30;0.13;;;6.20;99.90;;;;;;7398871;19;19914;-69
2023/03/27 12:00:15;;;;;;;1.25;0.40;;;6.30;99.90;;;;;;7398178;19;19918;-69
2023/03/27 12:03:08;;;;;;;3.58;0.35;;;6.40;99.90;;;;;;7398666;19;19914;-69
2023/03/27 12:05:47;;;;;;;2.30;0.40;;;6.70;99.90;;;;;;7399284;19;19942;-69
2023/03/27 12:08:24;;;;;;;2.72;0.57;;;6.80;99.90;;;;;;7398469;19;19961;-69
2023/03/27 12:10:56;;;;;;;2.22;0.60;;;6.80;99.90;;;;;;7398897;19;20288;-69
2023/03/27 12:13:49;;;;;;;3.53;0.52;;;6.20;99.90;;;;;;7400372;19;19929;-68
2023/03/27 12:16:38;;;;;;;2.35;0.70;;;5.70;99.90;;;;;;7398623;19;19915;-69
2023/03/27 12:19:16;;;;;;;;;;;5.60;99.90;;;;;;7404368;19;19922;-68
2023/03/27 12:21:57;;;;;;;7.80;0.77;;;5.80;99.90;;;;;;7398733;19;19929;-68
2023/03/27 12:24:34;;;;;;;2.80;0.70;;;5.70;99.90;;;;;;7398694;19;19914;-68
2023/03/27 12:27:27;;;;;;;5.53;0.60;;;6.10;99.90;;;;;;7401780;19;19915;-69
2023/03/27 12:30:08;;;;;;;2.38;0.52;;;6.40;99.90;;;;;;7399234;19;19966;-68
2023/03/27 12:33:16;;;;;;;2.45;0.50;;;6.70;99.90;;;;;;7403619;19;19923;-68
2023/03/27 12:35:50;;;;;;;2.40;0.73;;;6.90;99.90;;;;;;7401407;19;19952;-68
2023/03/27 12:38:31;;;;;;;3.00;0.40;;;7.00;99.90;;;;;;7404985;19;19939;-69
2023/03/27 12:41:07;;;;;;;4.32;0.50;;;7.00;99.90;;;;;;7403199;19;20246;-69
2023/03/27 12:43:40;;;;;;;1.88;0.60;;;7.20;99.90;;;;;;7404284;19;20355;-69
2023/03/27 12:46:17;;;;;;;5.80;0.80;;;7.20;99.90;;;;;;7402053;19;19922;-69
2023/03/27 12:48:58;;;;;;;2.33;0.30;;;7.10;99.90;;;;;;7404119;19;19919;-68
2023/03/27 12:51:46;;;;;;;2.05;0.40;;;6.90;99.90;;;;;;7405122;19;19929;-69
2023/03/27 12:54:26;;;;;;;2.58;0.30;;;6.90;99.90;;;;;;7403560;19;19910;-69
2023/03/27 12:57:04;;;;;;;3.83;0.52;;;6.90;99.90;;;;;;7404566;19;19919;-68
2023/03/27 12:59:35;;;;;;;3.05;0.20;;;6.90;99.90;;;;;;7404178;19;19915;-69
2023/03/27 13:02:46;;;;;;;2.63;0.47;;;6.70;99.90;;;;;;7404148;19;19957;-69
2023/03/27 13:05:45;;;;;;;5.43;0.70;;;6.60;99.90;;;;;;7404901;19;20328;-69
2023/03/27 13:08:41;;;;;;;1.90;0.30;;;6.90;99.90;;;;;;7408157;19;19927;-69
2023/03/27 13:11:31;;;;;;;2.92;0.55;;;7.20;99.90;;;;;;7404575;19;20355;-69
2023/03/27 13:14:38;;;;;;;6.07;1.10;;;7.20;99.90;;;;;;7406672;19;19918;-68
2023/03/27 13:17:28;;;;;;;4.07;0.50;;;7.00;99.90;;;;;;7401246;19;20278;-69
2023/03/27 13:20:08;;;;;;;4.10;0.60;;;6.90;99.90;;;;;;7404159;19;19929;-69
2023/03/27 13:23:18;;;;;;;4.43;0.68;;;6.70;99.90;;;;;;7403503;19;20294;-69
2023/03/27 13:26:07;;;;;;;2.97;0.73;;;6.70;99.90;;;;;;7399373;19;19919;-69
2023/03/27 13:28:53;;;;;;;2.45;0.60;;;6.60;99.90;;;;;;7403481;19;20431;-68
2023/03/27 13:31:54;;;;;;;6.15;0.70;;;6.40;99.90;;;;;;7403755;19;19932;-69
2023/03/27 13:34:38;;;;;;;3.15;0.85;;;6.20;99.90;;;;;;7402843;19;19919;-69
2023/03/27 13:37:37;;;;;;;3.55;0.65;;;6.20;99.90;;;;;;7404086;19;19984;-68
2023/03/27 13:40:23;;;;;;;4.55;0.55;;;6.10;99.90;;;;;;7402769;19;19922;-68
2023/03/27 13:43:02;;;;;;;6.45;0.65;;;6.10;99.90;;;;;;7401229;19;20423;-69
2023/03/27 13:45:40;;;;;;;4.85;0.52;;;5.40;99.90;;;;;;7403191;19;20020;-68
2023/03/27 13:48:28;;;;;;;2.47;0.60;;;5.90;99.90;;;;;;7403171;19;19931;-68
2023/03/27 13:51:26;;;;;;;2.65;0.55;;;5.90;99.90;;;;;;7402849;19;20008;-68
2023/03/27 13:54:25;;;;;;;5.05;0.52;;;6.50;99.90;;;;;;7402058;19;19926;-69
2023/03/27 13:57:06;;;;;;;3.92;0.32;;;6.60;99.90;;;;;;7401415;19;19918;-69
2023/03/27 14:00:09;;;;;;;3.10;0.35;;;6.70;99.90;;;;;;7403232;19;20352;-69
2023/03/27 14:03:13;;;;;;;1.80;0.30;;;6.70;99.90;;;;;;7401924;19;19913;-69
2023/03/27 14:06:07;;;;;;;3.03;0.75;;;6.40;99.90;;;;;;7403496;19;19942;-69
2023/03/27 14:08:47;;;;;;;2.10;0.30;;;6.30;99.90;;;;;;7401963;19;19994;-69
2023/03/27 14:11:35;;;;;;;1.08;0.30;;;6.60;99.90;;;;;;7405931;19;19919;-69